createdAt,value
2022-09-25T00:00:22.502Z,0
2022-09-25T00:01:23.826Z,0
2022-09-25T00:02:23.821Z,0
2022-09-25T00:03:24.047Z,0
2022-09-25T00:04:23.893Z,0
2022-09-25T00:05:24.510Z,0
2022-09-25T00:06:25.421Z,0
2022-09-25T00:07:26.738Z,0
2022-09-25T00:08:27.687Z,0
2022-09-25T00:09:28.107Z,0
2022-09-25T00:10:28.022Z,0
2022-09-25T00:11:29.009Z,0
2022-09-25T00:12:29.496Z,0
2022-09-25T00:13:29.398Z,0
2022-09-25T00:14:30.590Z,0
2022-09-25T00:15:31.806Z,0
2022-09-25T00:16:32.054Z,0
2022-09-25T00:17:32.324Z,0
2022-09-25T00:18:32.531Z,0
2022-09-25T00:19:32.519Z,0
2022-09-25T00:20:33.454Z,0
2022-09-25T00:21:34.677Z,0
2022-09-25T00:22:34.595Z,0
2022-09-25T00:23:34.816Z,0
2022-09-25T00:24:35.070Z,0
2022-09-25T00:25:35.994Z,0
2022-09-25T00:26:36.952Z,0
2022-09-25T00:27:37.141Z,0
2022-09-25T00:28:37.483Z,0
2022-09-25T00:29:38.301Z,0
2022-09-25T00:30:39.840Z,0
2022-09-25T00:31:39.894Z,0
2022-09-25T00:32:41.092Z,0
2022-09-25T00:33:41.007Z,0
2022-09-25T00:34:41.945Z,0
2022-09-25T00:35:43.160Z,0
2022-09-25T00:36:43.083Z,0
2022-09-25T00:37:44.005Z,0
2022-09-25T00:38:44.621Z,0
2022-09-25T00:39:45.686Z,0
2022-09-25T00:40:46.991Z,0
2022-09-25T00:41:47.328Z,0
2022-09-25T00:42:47.525Z,0
2022-09-25T00:43:47.722Z,0
2022-09-25T00:44:47.924Z,0
2022-09-25T00:45:48.294Z,0
2022-09-25T00:46:49.097Z,0
2022-09-25T00:47:48.422Z,0
2022-09-25T00:48:49.641Z,0
2022-09-25T00:49:50.380Z,0
2022-09-25T00:50:51.277Z,0
2022-09-25T00:51:54.579Z,0
2022-09-25T00:52:52.723Z,0
2022-09-25T00:53:53.222Z,0
2022-09-25T00:54:52.583Z,0
2022-09-25T00:55:53.217Z,0
2022-09-25T00:56:54.293Z,0
2022-09-25T00:57:54.184Z,0
2022-09-25T00:58:55.115Z,0
2022-09-25T00:59:55.838Z,0
2022-09-25T01:00:56.929Z,0
2022-09-25T01:01:57.618Z,0
2022-09-25T01:02:58.138Z,0
2022-09-25T01:03:57.510Z,0
2022-09-25T01:04:59.614Z,0
2022-09-25T01:05:59.242Z,0
2022-09-25T01:06:59.160Z,0
2022-09-25T01:07:59.806Z,0
2022-09-25T01:09:00.403Z,0
2022-09-25T01:10:01.246Z,0
2022-09-25T01:11:01.569Z,0
2022-09-25T01:12:03.204Z,0
2022-09-25T01:13:03.400Z,0
2022-09-25T01:14:04.333Z,0
2022-09-25T01:15:04.235Z,0
2022-09-25T01:16:05.440Z,0
2022-09-25T01:17:05.887Z,0
2022-09-25T01:18:06.417Z,0
2022-09-25T01:19:05.739Z,0
2022-09-25T01:20:09.501Z,0
2022-09-25T01:21:07.430Z,0
2022-09-25T01:22:08.340Z,0
2022-09-25T01:23:08.235Z,0
2022-09-25T01:24:09.362Z,0
2022-09-25T01:25:10.092Z,0
2022-09-25T01:26:15.560Z,0
2022-09-25T01:27:11.777Z,0
2022-09-25T01:28:12.689Z,0
2022-09-25T01:29:13.606Z,0
2022-09-25T01:30:14.736Z,0
2022-09-25T01:31:15.135Z,0
2022-09-25T01:32:14.200Z,0
2022-09-25T01:33:15.090Z,0
2022-09-25T01:34:16.719Z,0
2022-09-25T01:35:17.229Z,0
2022-09-25T01:36:16.854Z,0
2022-09-25T01:37:17.473Z,0
2022-09-25T01:38:18.091Z,0
2022-09-25T01:39:19.302Z,0
2022-09-25T01:40:20.006Z,0
2022-09-25T01:41:20.204Z,0
2022-09-25T01:42:20.457Z,0
2022-09-25T01:43:20.055Z,0
2022-09-25T01:44:20.969Z,0
2022-09-25T01:45:21.463Z,0
2022-09-25T01:46:21.545Z,0
2022-09-25T01:47:21.287Z,0
2022-09-25T01:48:22.213Z,0
2022-09-25T01:49:22.415Z,0
2022-09-25T01:50:22.819Z,0
2022-09-25T01:51:23.004Z,0
2022-09-25T01:52:23.056Z,0
2022-09-25T01:53:24.562Z,0
2022-09-25T01:54:24.321Z,0
2022-09-25T01:55:25.554Z,0
2022-09-25T01:56:26.169Z,0
2022-09-25T01:57:27.154Z,0
2022-09-25T01:58:27.345Z,0
2022-09-25T01:59:27.547Z,0
2022-09-25T02:00:28.269Z,0
2022-09-25T02:01:29.132Z,0
2022-09-25T02:02:28.854Z,0
2022-09-25T02:03:29.783Z,0
2022-09-25T02:04:30.125Z,0
2022-09-25T02:05:31.332Z,0
2022-09-25T02:06:31.230Z,0
2022-09-25T02:07:32.429Z,0
2022-09-25T02:08:33.087Z,0
2022-09-25T02:09:34.305Z,0
2022-09-25T02:10:35.637Z,0
2022-09-25T02:11:36.131Z,0
2022-09-25T02:12:36.314Z,0
2022-09-25T02:13:36.511Z,0
2022-09-25T02:14:36.426Z,0
2022-09-25T02:15:37.642Z,0
2022-09-25T02:16:38.421Z,0
2022-09-25T02:17:38.411Z,0
2022-09-25T02:18:38.607Z,0
2022-09-25T02:19:38.804Z,0
2022-09-25T02:20:39.115Z,0
2022-09-25T02:21:38.734Z,0
2022-09-25T02:22:39.360Z,0
2022-09-25T02:23:39.980Z,0
2022-09-25T02:24:40.897Z,0
2022-09-25T02:25:41.821Z,0
2022-09-25T02:26:42.466Z,0
2022-09-25T02:27:44.184Z,0
2022-09-25T02:28:44.389Z,0
2022-09-25T02:29:44.013Z,0
2022-09-25T02:30:45.423Z,0
2022-09-25T02:31:45.103Z,0
2022-09-25T02:32:46.347Z,0
2022-09-25T02:33:45.967Z,0
2022-09-25T02:34:47.181Z,0
2022-09-25T02:35:47.830Z,0
2022-09-25T02:36:48.791Z,0
2022-09-25T02:37:50.003Z,0
2022-09-25T02:38:50.945Z,0
2022-09-25T02:39:51.442Z,0
2022-09-25T02:40:52.221Z,0
2022-09-25T02:41:52.734Z,0
2022-09-25T02:42:53.375Z,0
2022-09-25T02:43:53.577Z,0
2022-09-25T02:44:53.512Z,0
2022-09-25T02:45:55.145Z,0
2022-09-25T02:46:55.075Z,0
2022-09-25T02:47:54.699Z,0
2022-09-25T02:48:55.041Z,0
2022-09-25T02:49:55.078Z,0
2022-09-25T02:50:56.201Z,0
2022-09-25T02:51:56.840Z,0
2022-09-25T02:52:58.057Z,0
2022-09-25T02:53:58.273Z,0
2022-09-25T02:54:59.196Z,0
2022-09-25T02:55:59.130Z,0
2022-09-25T02:57:03.667Z,0
2022-09-25T02:58:01.224Z,0
2022-09-25T02:59:01.419Z,0
2022-09-25T03:00:01.917Z,0
2022-09-25T03:01:01.895Z,0
2022-09-25T03:02:02.187Z,0
2022-09-25T03:03:09.091Z,0
2022-09-25T03:04:02.738Z,0
2022-09-25T03:05:03.938Z,0
2022-09-25T03:06:04.882Z,0
2022-09-25T03:07:04.951Z,0
2022-09-25T03:08:06.184Z,0
2022-09-25T03:09:06.098Z,0
2022-09-25T03:10:07.030Z,0
2022-09-25T03:11:08.076Z,0
2022-09-25T03:12:08.997Z,0
2022-09-25T03:13:09.550Z,0
2022-09-25T03:14:09.870Z,0
2022-09-25T03:15:10.405Z,0
2022-09-25T03:16:10.083Z,0
2022-09-25T03:17:10.646Z,0
2022-09-25T03:18:11.566Z,0
2022-09-25T03:19:11.915Z,0
2022-09-25T03:20:13.123Z,0
2022-09-25T03:21:13.549Z,0
2022-09-25T03:22:15.039Z,0
2022-09-25T03:23:15.267Z,0
2022-09-25T03:24:15.663Z,0
2022-09-25T03:25:15.577Z,0
2022-09-25T03:26:16.225Z,0
2022-09-25T03:27:16.688Z,0
2022-09-25T03:28:17.978Z,0
2022-09-25T03:29:18.188Z,0
2022-09-25T03:30:19.110Z,0
2022-09-25T03:31:19.620Z,0
2022-09-25T03:32:20.589Z,0
2022-09-25T03:33:21.530Z,0
2022-09-25T03:34:22.380Z,0
2022-09-25T03:35:22.305Z,0
2022-09-25T03:36:22.926Z,0
2022-09-25T03:37:24.417Z,0
2022-09-25T03:38:24.311Z,0
2022-09-25T03:39:24.958Z,0
2022-09-25T03:40:26.572Z,0
2022-09-25T03:41:27.008Z,0
2022-09-25T03:42:26.909Z,0
2022-09-25T03:43:27.794Z,0
2022-09-25T03:44:27.759Z,0
2022-09-25T03:45:28.992Z,0
2022-09-25T03:46:28.655Z,0
2022-09-25T03:47:29.607Z,0
2022-09-25T03:48:30.235Z,0
2022-09-25T03:49:31.449Z,0
2022-09-25T03:50:31.741Z,0
2022-09-25T03:51:32.167Z,0
2022-09-25T03:52:32.092Z,0
2022-09-25T03:53:33.295Z,0
2022-09-25T03:54:34.215Z,0
2022-09-25T03:55:34.141Z,0
2022-09-25T03:56:35.383Z,0
2022-09-25T03:57:35.000Z,0
2022-09-25T03:58:36.640Z,0
2022-09-25T03:59:37.122Z,0
2022-09-25T04:00:37.339Z,0
2022-09-25T04:01:37.388Z,0
2022-09-25T04:02:38.850Z,0
2022-09-25T04:03:38.854Z,0
2022-09-25T04:04:39.749Z,0
2022-09-25T04:05:40.664Z,0
2022-09-25T04:06:41.601Z,0
2022-09-25T04:07:40.927Z,0
2022-09-25T04:08:42.275Z,0
2022-09-25T04:09:43.772Z,0
2022-09-25T04:10:42.824Z,0
2022-09-25T04:11:43.881Z,0
2022-09-25T04:12:44.220Z,0
2022-09-25T04:13:45.472Z,0
2022-09-25T04:14:45.685Z,0
2022-09-25T04:15:45.582Z,0
2022-09-25T04:16:46.901Z,0
2022-09-25T04:17:46.341Z,0
2022-09-25T04:18:47.298Z,0
2022-09-25T04:19:47.492Z,0
2022-09-25T04:20:47.118Z,0
2022-09-25T04:21:48.133Z,0
2022-09-25T04:22:49.056Z,0
2022-09-25T04:23:48.953Z,0
2022-09-25T04:24:49.584Z,0
2022-09-25T04:25:50.198Z,0
2022-09-25T04:26:50.832Z,0
2022-09-25T04:27:51.449Z,0
2022-09-25T04:28:53.073Z,0
2022-09-25T04:29:52.972Z,0
2022-09-25T04:30:53.865Z,0
2022-09-25T04:31:54.441Z,0
2022-09-25T04:32:53.770Z,0
2022-09-25T04:33:54.995Z,0
2022-09-25T04:34:55.186Z,0
2022-09-25T04:35:55.104Z,0
2022-09-25T04:36:56.021Z,0
2022-09-25T04:37:56.918Z,0
2022-09-25T04:38:58.115Z,0
2022-09-25T04:39:57.743Z,0
2022-09-25T04:40:58.831Z,0
2022-09-25T04:41:58.541Z,0
2022-09-25T04:42:59.758Z,0
2022-09-25T04:44:00.120Z,0
2022-09-25T04:45:00.033Z,0
2022-09-25T04:46:01.620Z,0
2022-09-25T04:47:02.006Z,0
2022-09-25T04:48:01.932Z,0
2022-09-25T04:49:02.853Z,0
2022-09-25T04:50:03.197Z,0
2022-09-25T04:51:03.525Z,0
2022-09-25T04:52:04.268Z,0
2022-09-25T04:53:05.769Z,0
2022-09-25T04:54:05.421Z,0
2022-09-25T04:55:06.636Z,0
2022-09-25T04:56:08.694Z,0
2022-09-25T04:57:07.095Z,0
2022-09-25T04:58:15.920Z,0
2022-09-25T04:59:07.268Z,0
2022-09-25T05:00:07.506Z,0
2022-09-25T05:01:08.872Z,0
2022-09-25T05:02:08.995Z,0
2022-09-25T05:03:09.495Z,0
2022-09-25T05:04:14.010Z,0
2022-09-25T05:05:10.543Z,0
2022-09-25T05:06:10.212Z,0
2022-09-25T05:07:11.111Z,0
2022-09-25T05:08:11.734Z,0
2022-09-25T05:09:12.656Z,0
2022-09-25T05:10:14.143Z,0
2022-09-25T05:11:14.648Z,0
2022-09-25T05:12:14.718Z,0
2022-09-25T05:13:14.641Z,0
2022-09-25T05:14:15.892Z,0
2022-09-25T05:15:16.396Z,0
2022-09-25T05:16:16.758Z,0
2022-09-25T05:17:16.969Z,0
2022-09-25T05:18:17.614Z,0
2022-09-25T05:19:18.512Z,0
2022-09-25T05:20:19.713Z,0
2022-09-25T05:21:19.631Z,0
2022-09-25T05:22:20.620Z,0
2022-09-25T05:23:22.115Z,0
2022-09-25T05:24:22.448Z,0
2022-09-25T05:25:22.648Z,0
2022-09-25T05:26:23.294Z,0
2022-09-25T05:27:24.615Z,0
2022-09-25T05:28:24.834Z,0
2022-09-25T05:29:25.836Z,0
2022-09-25T05:30:25.444Z,0
2022-09-25T05:31:26.359Z,0
2022-09-25T05:32:26.293Z,0
2022-09-25T05:33:27.492Z,0
2022-09-25T05:34:28.098Z,0
2022-09-25T05:35:28.304Z,0
2022-09-25T05:36:28.806Z,0
2022-09-25T05:37:28.211Z,0
2022-09-25T05:38:28.859Z,0
2022-09-25T05:39:31.388Z,0
2022-09-25T05:40:30.490Z,5.63
2022-09-25T05:41:31.429Z,5.63
2022-09-25T05:42:32.918Z,5.63
2022-09-25T05:43:32.828Z,5.63
2022-09-25T05:44:34.100Z,5.63
2022-09-25T05:45:33.983Z,5.63
2022-09-25T05:46:35.476Z,5.63
2022-09-25T05:47:35.120Z,5.63
2022-09-25T05:48:36.032Z,5.63
2022-09-25T05:49:36.949Z,5.63
2022-09-25T05:50:37.870Z,5.63
2022-09-25T05:51:38.789Z,5.63
2022-09-25T05:52:38.857Z,5.63
2022-09-25T05:53:39.760Z,5.63
2022-09-25T05:54:40.673Z,5.63
2022-09-25T05:55:42.175Z,5.63
2022-09-25T05:56:41.794Z,5.63
2022-09-25T05:57:43.295Z,5.63
2022-09-25T05:58:43.221Z,5.63
2022-09-25T05:59:43.556Z,5.63
2022-09-25T06:00:43.965Z,0
2022-09-25T06:01:43.867Z,0
2022-09-25T06:02:44.868Z,0
2022-09-25T06:03:44.801Z,0
2022-09-25T06:04:46.004Z,5.63
2022-09-25T06:05:45.910Z,5.63
2022-09-25T06:06:46.817Z,5.63
2022-09-25T06:07:46.733Z,5.63
2022-09-25T06:08:47.834Z,5.63
2022-09-25T06:09:48.774Z,5.63
2022-09-25T06:10:48.688Z,5.63
2022-09-25T06:11:49.612Z,5.63
2022-09-25T06:12:49.820Z,11.25
2022-09-25T06:13:54.162Z,11.25
2022-09-25T06:14:51.071Z,11.25
2022-09-25T06:15:52.787Z,11.25
2022-09-25T06:16:52.546Z,11.25
2022-09-25T06:17:53.475Z,11.25
2022-09-25T06:18:53.857Z,11.25
2022-09-25T06:19:54.514Z,11.25
2022-09-25T06:20:55.721Z,11.25
2022-09-25T06:21:56.639Z,11.25
2022-09-25T06:22:57.646Z,11.25
2022-09-25T06:23:57.867Z,11.25
2022-09-25T06:24:58.361Z,11.25
2022-09-25T06:25:57.679Z,11.25
2022-09-25T06:26:58.905Z,11.25
2022-09-25T06:27:59.441Z,11.25
2022-09-25T06:29:02.993Z,11.25
2022-09-25T06:30:00.456Z,11.25
2022-09-25T06:31:00.148Z,11.25
2022-09-25T06:32:01.166Z,11.25
2022-09-25T06:33:01.485Z,11.25
2022-09-25T06:34:01.988Z,11.25
2022-09-25T06:35:01.891Z,11.25
2022-09-25T06:36:03.398Z,11.25
2022-09-25T06:37:03.321Z,11.25
2022-09-25T06:38:03.964Z,16.88
2022-09-25T06:39:05.159Z,16.88
2022-09-25T06:40:06.082Z,16.88
2022-09-25T06:41:11.261Z,22.5
2022-09-25T06:42:06.341Z,22.5
2022-09-25T06:43:07.353Z,22.5
2022-09-25T06:44:08.578Z,28.13
2022-09-25T06:45:08.867Z,28.13
2022-09-25T06:46:09.084Z,33.75
2022-09-25T06:47:10.039Z,33.75
2022-09-25T06:48:10.329Z,39.38
2022-09-25T06:49:10.965Z,39.38
2022-09-25T06:50:11.590Z,39.38
2022-09-25T06:51:12.513Z,39.38
2022-09-25T06:52:13.726Z,39.38
2022-09-25T06:53:14.334Z,39.38
2022-09-25T06:54:14.764Z,39.38
2022-09-25T06:55:14.668Z,39.38
2022-09-25T06:56:15.297Z,39.38
2022-09-25T06:57:15.913Z,33.75
2022-09-25T06:58:17.149Z,28.13
2022-09-25T06:59:17.381Z,28.13
2022-09-25T07:00:18.171Z,22.5
2022-09-25T07:01:25.725Z,22.5
2022-09-25T07:02:19.826Z,16.88
2022-09-25T07:03:20.288Z,16.88
2022-09-25T07:04:21.639Z,16.88
2022-09-25T07:05:21.870Z,11.25
2022-09-25T07:06:21.837Z,11.25
2022-09-25T07:07:23.051Z,11.25
2022-09-25T07:08:23.276Z,11.25
2022-09-25T07:09:23.180Z,11.25
2022-09-25T07:10:24.797Z,11.25
2022-09-25T07:11:25.046Z,11.25
2022-09-25T07:12:25.248Z,11.25
2022-09-25T07:13:25.220Z,11.25
2022-09-25T07:14:26.144Z,11.25
2022-09-25T07:15:26.487Z,11.25
2022-09-25T07:16:27.173Z,11.25
2022-09-25T07:17:26.811Z,16.88
2022-09-25T07:18:27.437Z,16.88
2022-09-25T07:19:32.814Z,16.88
2022-09-25T07:20:28.763Z,16.88
2022-09-25T07:21:29.969Z,16.88
2022-09-25T07:22:29.888Z,22.5
2022-09-25T07:23:31.180Z,22.5
2022-09-25T07:24:31.381Z,22.5
2022-09-25T07:25:31.302Z,28.13
2022-09-25T07:26:32.234Z,28.13
2022-09-25T07:27:33.149Z,28.13
2022-09-25T07:28:34.477Z,28.13
2022-09-25T07:29:34.975Z,28.13
2022-09-25T07:30:35.597Z,28.13
2022-09-25T07:31:35.802Z,33.75
2022-09-25T07:32:36.011Z,33.75
2022-09-25T07:33:35.922Z,33.75
2022-09-25T07:34:36.846Z,33.75
2022-09-25T07:35:36.199Z,33.75
2022-09-25T07:36:36.823Z,39.38
2022-09-25T07:37:37.767Z,39.38
2022-09-25T07:38:38.751Z,45
2022-09-25T07:39:39.976Z,50.63
2022-09-25T07:40:41.136Z,50.63
2022-09-25T07:41:40.491Z,50.63
2022-09-25T07:42:41.447Z,50.63
2022-09-25T07:43:41.887Z,56.25
2022-09-25T07:45:00.123Z,61.88
2022-09-25T07:45:43.671Z,61.88
2022-09-25T07:46:43.597Z,61.88
2022-09-25T07:47:44.570Z,67.5
2022-09-25T07:48:45.234Z,67.5
2022-09-25T07:49:46.163Z,73.13
2022-09-25T07:50:47.387Z,73.13
2022-09-25T07:51:47.309Z,78.75
2022-09-25T07:52:48.228Z,78.75
2022-09-25T07:53:48.577Z,78.75
2022-09-25T07:54:49.205Z,78.75
2022-09-25T07:55:49.531Z,73.13
2022-09-25T07:56:51.461Z,73.13
2022-09-25T07:57:51.662Z,67.5
2022-09-25T07:58:52.897Z,67.5
2022-09-25T07:59:52.242Z,67.5
2022-09-25T08:00:53.527Z,61.88
2022-09-25T08:02:05.091Z,56.25
2022-09-25T08:02:54.926Z,56.25
2022-09-25T08:03:54.643Z,56.25
2022-09-25T08:04:55.282Z,56.25
2022-09-25T08:05:56.208Z,56.25
2022-09-25T08:06:57.130Z,50.63
2022-09-25T08:07:58.052Z,50.63
2022-09-25T08:08:58.271Z,50.63
2022-09-25T08:09:58.200Z,45
2022-09-25T08:10:59.168Z,39.38
2022-09-25T08:11:59.371Z,39.38
2022-09-25T08:13:00.289Z,39.38
2022-09-25T08:14:01.350Z,39.38
2022-09-25T08:15:01.275Z,39.38
2022-09-25T08:16:02.700Z,39.38
2022-09-25T08:17:02.651Z,39.38
2022-09-25T08:18:03.574Z,39.38
2022-09-25T08:19:04.514Z,39.38
2022-09-25T08:20:05.458Z,39.38
2022-09-25T08:21:06.107Z,39.38
2022-09-25T08:22:07.016Z,39.38
2022-09-25T08:23:07.656Z,39.38
2022-09-25T08:24:08.765Z,39.38
2022-09-25T08:25:09.403Z,39.38
2022-09-25T08:26:10.039Z,39.38
2022-09-25T08:27:11.265Z,39.38
2022-09-25T08:28:11.479Z,45
2022-09-25T08:29:11.984Z,45
2022-09-25T08:30:12.195Z,45
2022-09-25T08:31:12.941Z,50.63
2022-09-25T08:32:13.171Z,50.63
2022-09-25T08:33:18.369Z,50.63
2022-09-25T08:34:53.407Z,56.25
2022-09-25T08:35:14.037Z,56.25
2022-09-25T08:36:14.416Z,61.88
2022-09-25T08:37:15.043Z,67.5
2022-09-25T08:38:15.394Z,73.13
2022-09-25T08:39:16.050Z,73.13
2022-09-25T08:40:16.787Z,78.75
2022-09-25T08:41:18.373Z,84.38
2022-09-25T08:42:18.579Z,84.38
2022-09-25T08:43:18.506Z,90
2022-09-25T08:44:19.817Z,84.38
2022-09-25T08:45:39.498Z,95.63
2022-09-25T08:46:21.487Z,95.63
2022-09-25T08:47:24.948Z,95.63
2022-09-25T08:48:21.854Z,90
2022-09-25T08:49:23.358Z,90
2022-09-25T08:50:23.263Z,95.63
2022-09-25T08:51:23.897Z,101.25
2022-09-25T08:52:25.300Z,112.5
2022-09-25T08:53:25.235Z,90
2022-09-25T08:54:26.314Z,84.38
2022-09-25T08:55:26.938Z,90
2022-09-25T08:56:28.151Z,101.25
2022-09-25T08:57:28.780Z,101.25
2022-09-25T08:58:29.389Z,95.63
2022-09-25T08:59:30.022Z,95.63
2022-09-25T09:00:30.655Z,90
2022-09-25T09:01:32.350Z,112.5
2022-09-25T09:02:32.369Z,101.25
2022-09-25T09:03:33.612Z,106.88
2022-09-25T09:04:34.043Z,118.13
2022-09-25T09:05:33.671Z,118.13
2022-09-25T09:06:34.598Z,112.5
2022-09-25T09:07:42.917Z,112.5
2022-09-25T09:08:35.541Z,123.75
2022-09-25T09:09:36.195Z,129.38
2022-09-25T09:10:37.129Z,118.13
2022-09-25T09:11:38.058Z,112.5
2022-09-25T09:12:37.962Z,106.88
2022-09-25T09:13:39.187Z,101.25
2022-09-25T09:14:39.656Z,101.25
2022-09-25T09:15:39.601Z,106.88
2022-09-25T09:16:41.201Z,95.63
2022-09-25T09:17:41.095Z,95.63
2022-09-25T09:18:42.311Z,90
2022-09-25T09:19:42.508Z,84.38
2022-09-25T09:20:42.714Z,78.75
2022-09-25T09:21:42.345Z,73.13
2022-09-25T09:22:43.554Z,67.5
2022-09-25T09:23:44.053Z,56.25
2022-09-25T09:24:44.803Z,50.63
2022-09-25T09:25:45.270Z,50.63
2022-09-25T09:26:45.893Z,50.63
2022-09-25T09:27:47.101Z,45
2022-09-25T09:28:48.024Z,45
2022-09-25T09:29:49.358Z,45
2022-09-25T09:30:49.233Z,45
2022-09-25T09:31:50.596Z,50.63
2022-09-25T09:32:50.504Z,50.63
2022-09-25T09:33:51.121Z,50.63
2022-09-25T09:35:20.925Z,50.63
2022-09-25T09:35:52.886Z,56.25
2022-09-25T09:36:53.534Z,56.25
2022-09-25T09:37:54.740Z,61.88
2022-09-25T09:38:54.944Z,61.88
2022-09-25T09:39:55.457Z,61.88
2022-09-25T09:40:56.210Z,61.88
2022-09-25T09:41:56.183Z,61.88
2022-09-25T09:42:57.409Z,67.5
2022-09-25T09:44:03.027Z,67.5
2022-09-25T09:44:58.320Z,73.13
2022-09-25T09:45:58.443Z,78.75
2022-09-25T09:46:58.937Z,78.75
2022-09-25T09:47:59.131Z,78.75
2022-09-25T09:49:00.052Z,78.75
2022-09-25T09:50:00.676Z,78.75
2022-09-25T09:51:08.479Z,84.38
2022-09-25T09:52:02.683Z,95.63
2022-09-25T09:53:02.019Z,95.63
2022-09-25T09:54:02.944Z,90
2022-09-25T09:55:04.298Z,90
2022-09-25T09:56:05.676Z,95.63
2022-09-25T09:57:05.273Z,106.88
2022-09-25T09:58:06.222Z,129.38
2022-09-25T09:59:06.447Z,135
2022-09-25T10:00:16.501Z,129.38
2022-09-25T10:01:42.858Z,106.88
2022-09-25T10:02:09.755Z,95.63
2022-09-25T10:03:09.746Z,84.38
2022-09-25T10:04:09.798Z,78.75
2022-09-25T10:05:10.028Z,73.13
2022-09-25T10:06:10.235Z,73.13
2022-09-25T10:07:10.464Z,73.13
2022-09-25T10:08:10.382Z,67.5
2022-09-25T10:09:11.886Z,67.5
2022-09-25T10:10:12.131Z,67.5
2022-09-25T10:11:12.075Z,61.88
2022-09-25T10:12:12.306Z,61.88
2022-09-25T10:13:17.447Z,61.88
2022-09-25T10:14:13.631Z,61.88
2022-09-25T10:15:14.127Z,67.5
2022-09-25T10:16:14.833Z,78.75
2022-09-25T10:17:15.477Z,84.38
2022-09-25T10:18:15.967Z,84.38
2022-09-25T10:19:16.487Z,84.38
2022-09-25T10:20:16.445Z,90
2022-09-25T10:21:17.380Z,84.38
2022-09-25T10:22:21.906Z,78.75
2022-09-25T10:23:21.454Z,67.5
2022-09-25T10:24:19.095Z,56.25
2022-09-25T10:25:19.202Z,50.63
2022-09-25T10:26:18.846Z,45
2022-09-25T10:27:19.770Z,39.38
2022-09-25T10:28:21.005Z,33.75
2022-09-25T10:29:20.921Z,33.75
2022-09-25T10:30:21.689Z,39.38
2022-09-25T10:31:22.651Z,39.38
2022-09-25T10:32:23.737Z,39.38
2022-09-25T10:33:24.690Z,45
2022-09-25T10:34:25.104Z,45
2022-09-25T10:35:26.429Z,45
2022-09-25T10:36:26.654Z,45
2022-09-25T10:37:26.859Z,45
2022-09-25T10:38:27.081Z,45
2022-09-25T10:40:00.173Z,45
2022-09-25T10:40:28.793Z,39.38
2022-09-25T10:41:29.090Z,39.38
2022-09-25T10:42:29.590Z,39.38
2022-09-25T10:43:29.795Z,33.75
2022-09-25T10:44:30.161Z,28.13
2022-09-25T10:45:30.460Z,28.13
2022-09-25T10:46:31.061Z,28.13
2022-09-25T10:47:31.760Z,22.5
2022-09-25T10:48:32.259Z,22.5
2022-09-25T10:49:32.766Z,16.88
2022-09-25T10:50:32.802Z,16.88
2022-09-25T10:51:34.054Z,16.88
2022-09-25T10:52:33.958Z,16.88
2022-09-25T10:53:35.172Z,16.88
2022-09-25T10:54:39.120Z,16.88
2022-09-25T10:55:36.545Z,16.88
2022-09-25T10:56:36.187Z,16.88
2022-09-25T10:57:36.825Z,16.88
2022-09-25T10:58:37.759Z,16.88
2022-09-25T10:59:39.293Z,16.88
2022-09-25T11:00:39.847Z,11.25
2022-09-25T11:01:39.979Z,11.25
2022-09-25T11:02:40.919Z,11.25
2022-09-25T11:03:40.931Z,11.25
2022-09-25T11:04:41.571Z,11.25
2022-09-25T11:05:42.333Z,11.25
2022-09-25T11:06:42.956Z,11.25
2022-09-25T11:07:43.880Z,11.25
2022-09-25T11:08:45.107Z,11.25
2022-09-25T11:09:45.604Z,11.25
2022-09-25T11:10:45.934Z,11.25
2022-09-25T11:11:46.152Z,11.25
2022-09-25T11:12:46.375Z,11.25
2022-09-25T11:13:46.028Z,11.25
2022-09-25T11:14:46.934Z,11.25
2022-09-25T11:15:47.732Z,11.25
2022-09-25T11:16:48.961Z,11.25
2022-09-25T11:17:49.695Z,11.25
2022-09-25T11:18:50.594Z,16.88
2022-09-25T11:19:51.812Z,16.88
2022-09-25T11:20:52.464Z,16.88
2022-09-25T11:21:53.691Z,16.88
2022-09-25T11:22:53.365Z,16.88
2022-09-25T11:23:54.565Z,16.88
2022-09-25T11:24:58.673Z,16.88
2022-09-25T11:25:54.605Z,16.88
2022-09-25T11:26:55.826Z,16.88
2022-09-25T11:27:55.532Z,16.88
2022-09-25T11:28:55.879Z,16.88
2022-09-25T11:29:55.942Z,16.88
2022-09-25T11:30:58.444Z,16.88
2022-09-25T11:31:58.414Z,16.88
2022-09-25T11:33:04.328Z,16.88
2022-09-25T11:34:00.545Z,16.88
2022-09-25T11:35:00.845Z,22.5
2022-09-25T11:36:01.656Z,22.5
2022-09-25T11:37:01.894Z,22.5
2022-09-25T11:38:02.730Z,22.5
2022-09-25T11:39:02.258Z,28.13
2022-09-25T11:40:02.951Z,28.13
2022-09-25T11:41:04.705Z,28.13
2022-09-25T11:42:04.620Z,28.13
2022-09-25T11:43:05.545Z,33.75
2022-09-25T11:44:09.465Z,33.75
2022-09-25T11:45:06.791Z,39.38
2022-09-25T11:46:08.358Z,39.38
2022-09-25T11:47:08.349Z,39.38
2022-09-25T11:48:08.618Z,39.38
2022-09-25T11:49:12.019Z,45
2022-09-25T11:50:09.104Z,45
2022-09-25T11:51:10.030Z,45
2022-09-25T11:52:11.997Z,45
2022-09-25T11:53:10.616Z,45
2022-09-25T11:54:45.749Z,45
2022-09-25T11:55:11.396Z,45
2022-09-25T11:56:12.718Z,45
2022-09-25T11:57:12.331Z,45
2022-09-25T11:58:12.988Z,39.38
2022-09-25T11:59:14.487Z,39.38
2022-09-25T12:00:14.731Z,45
2022-09-25T12:01:16.388Z,45
2022-09-25T12:02:16.591Z,45
2022-09-25T12:03:16.998Z,45
2022-09-25T12:04:16.964Z,39.38
2022-09-25T12:05:17.569Z,39.38
2022-09-25T12:06:18.902Z,39.38
2022-09-25T12:07:19.524Z,45
2022-09-25T12:08:20.428Z,45
2022-09-25T12:09:21.113Z,45
2022-09-25T12:10:21.890Z,50.63
2022-09-25T12:11:22.836Z,50.63
2022-09-25T12:12:23.064Z,50.63
2022-09-25T12:13:23.988Z,56.25
2022-09-25T12:14:24.635Z,61.88
2022-09-25T12:15:25.136Z,78.75
2022-09-25T12:16:25.513Z,84.38
2022-09-25T12:17:26.445Z,84.38
2022-09-25T12:18:31.883Z,84.38
2022-09-25T12:19:27.508Z,78.75
2022-09-25T12:20:28.600Z,78.75
2022-09-25T12:21:29.528Z,73.13
2022-09-25T12:22:29.425Z,73.13
2022-09-25T12:23:30.346Z,73.13
2022-09-25T12:24:37.488Z,67.5
2022-09-25T12:25:31.087Z,67.5
2022-09-25T12:26:32.398Z,61.88
2022-09-25T12:27:32.613Z,56.25
2022-09-25T12:28:32.836Z,56.25
2022-09-25T12:29:32.455Z,50.63
2022-09-25T12:30:33.730Z,50.63
2022-09-25T12:31:35.332Z,45
2022-09-25T12:32:34.981Z,45
2022-09-25T12:33:35.954Z,39.38
2022-09-25T12:34:36.847Z,39.38
2022-09-25T12:35:38.055Z,33.75
2022-09-25T12:36:37.888Z,33.75
2022-09-25T12:37:43.692Z,33.75
2022-09-25T12:38:39.306Z,33.75
2022-09-25T12:39:40.228Z,33.75
2022-09-25T12:40:42.075Z,33.75
2022-09-25T12:41:42.321Z,33.75
2022-09-25T12:42:42.225Z,33.75
2022-09-25T12:43:42.542Z,39.38
2022-09-25T12:44:44.468Z,39.38
2022-09-25T12:45:44.554Z,39.38
2022-09-25T12:46:45.329Z,45
2022-09-25T12:47:45.559Z,45
2022-09-25T12:48:46.113Z,45
2022-09-25T12:49:46.596Z,50.63
2022-09-25T12:50:46.822Z,50.63
2022-09-25T12:51:47.045Z,50.63
2022-09-25T12:52:46.638Z,50.63
2022-09-25T12:53:47.862Z,50.63
2022-09-25T12:54:47.490Z,50.63
2022-09-25T12:55:48.752Z,50.63
2022-09-25T12:56:49.075Z,50.63
2022-09-25T12:57:49.401Z,50.63
2022-09-25T12:58:50.623Z,56.25
2022-09-25T12:59:57.844Z,56.25
2022-09-25T13:00:51.093Z,61.88
2022-09-25T13:01:52.447Z,61.88
2022-09-25T13:02:51.699Z,61.88
2022-09-25T13:03:52.243Z,67.5
2022-09-25T13:04:52.153Z,73.13
2022-09-25T13:05:52.783Z,73.13
2022-09-25T13:06:53.811Z,78.75
2022-09-25T13:07:54.446Z,84.38
2022-09-25T13:08:55.072Z,84.38
2022-09-25T13:09:56.021Z,78.75
2022-09-25T13:10:56.660Z,78.75
2022-09-25T13:11:57.877Z,78.75
2022-09-25T13:12:58.379Z,84.38
2022-09-25T13:13:58.610Z,90
2022-09-25T13:14:58.514Z,90
2022-09-25T13:15:59.456Z,90
2022-09-25T13:17:00.456Z,84.38
2022-09-25T13:18:00.394Z,78.75
2022-09-25T13:19:05.186Z,73.13
2022-09-25T13:20:01.403Z,73.13
2022-09-25T13:21:01.613Z,78.75
2022-09-25T13:22:01.529Z,78.75
2022-09-25T13:23:01.851Z,73.13
2022-09-25T13:24:02.772Z,73.13
2022-09-25T13:25:03.699Z,67.5
2022-09-25T13:26:04.618Z,67.5
2022-09-25T13:27:05.397Z,61.88
2022-09-25T13:28:05.319Z,56.25
2022-09-25T13:29:05.949Z,56.25
2022-09-25T13:30:06.580Z,50.63
2022-09-25T13:31:13.843Z,45
2022-09-25T13:32:08.591Z,45
2022-09-25T13:33:09.214Z,39.38
2022-09-25T13:34:10.629Z,39.38
2022-09-25T13:35:10.911Z,33.75
2022-09-25T13:36:11.271Z,33.75
2022-09-25T13:37:12.647Z,28.13
2022-09-25T13:38:12.272Z,28.13
2022-09-25T13:39:13.477Z,22.5
2022-09-25T13:40:13.523Z,16.88
2022-09-25T13:41:14.169Z,11.25
2022-09-25T13:42:15.380Z,11.25
2022-09-25T13:43:16.032Z,5.63
2022-09-25T13:44:17.301Z,5.63
2022-09-25T13:45:17.208Z,5.63
2022-09-25T13:46:18.442Z,11.25
2022-09-25T13:47:18.897Z,11.25
2022-09-25T13:48:23.916Z,11.25
2022-09-25T13:49:20.608Z,11.25
2022-09-25T13:50:20.822Z,16.88
2022-09-25T13:51:20.760Z,16.88